sensor_id;sensor_type;location;lat;lon;timestamp;pressure;altitude;pressure_sealevel;temperature;humidity
75938;BME280;64615;32.062;34.834;2024-01-15T00:01:56;101420.06;;;20.93;53.53
75938;BME280;64615;32.062;34.834;2024-01-15T00:04:21;101420.28;;;20.91;53.55
75938;BME280;64615;32.062;34.834;2024-01-15T00:06:47;101427.78;;;20.89;53.66
75938;BME280;64615;32.062;34.834;2024-01-15T00:09:13;101421.78;;;20.87;53.57
75938;BME280;64615;32.062;34.834;2024-01-15T00:11:38;101428.47;;;20.85;53.67
75938;BME280;64615;32.062;34.834;2024-01-15T00:14:04;101424.94;;;20.84;53.49
75938;BME280;64615;32.062;34.834;2024-01-15T00:16:29;101423.28;;;20.83;53.66
75938;BME280;64615;32.062;34.834;2024-01-15T00:18:55;101420.34;;;20.85;53.59
75938;BME280;64615;32.062;34.834;2024-01-15T00:21:21;101422.47;;;20.83;53.82
75938;BME280;64615;32.062;34.834;2024-01-15T00:23:46;101425.19;;;20.83;53.83
75938;BME280;64615;32.062;34.834;2024-01-15T00:26:12;101422.72;;;20.81;53.62
75938;BME280;64615;32.062;34.834;2024-01-15T00:28:38;101427.06;;;20.82;53.68
75938;BME280;64615;32.062;34.834;2024-01-15T00:31:05;101435.19;;;20.82;53.75
75938;BME280;64615;32.062;34.834;2024-01-15T00:33:31;101441.44;;;20.83;53.46
75938;BME280;64615;32.062;34.834;2024-01-15T00:35:56;101438.09;;;20.81;53.57
75938;BME280;64615;32.062;34.834;2024-01-15T00:38:22;101445.41;;;20.80;53.69
75938;BME280;64615;32.062;34.834;2024-01-15T00:40:48;101448.09;;;20.80;53.45
75938;BME280;64615;32.062;34.834;2024-01-15T00:43:13;101444.34;;;20.81;54.04
75938;BME280;64615;32.062;34.834;2024-01-15T00:45:40;101443.75;;;20.79;53.60
75938;BME280;64615;32.062;34.834;2024-01-15T00:48:05;101445.63;;;20.79;53.56
75938;BME280;64615;32.062;34.834;2024-01-15T00:50:31;101448.31;;;20.79;53.45
75938;BME280;64615;32.062;34.834;2024-01-15T00:52:57;101445.03;;;20.77;53.60
75938;BME280;64615;32.062;34.834;2024-01-15T00:55:22;101445.63;;;20.79;53.54
75938;BME280;64615;32.062;34.834;2024-01-15T00:57:48;101450.22;;;20.78;53.40
75938;BME280;64615;32.062;34.834;2024-01-15T01:00:14;101445.03;;;20.77;53.60
75938;BME280;64615;32.062;34.834;2024-01-15T01:02:39;101454.81;;;20.78;53.59
75938;BME280;64615;32.062;34.834;2024-01-15T01:05:05;101442.09;;;20.78;53.48
75938;BME280;64615;32.062;34.834;2024-01-15T01:07:31;101442.91;;;20.79;53.56
75938;BME280;64615;32.062;34.834;2024-01-15T01:09:56;101452.69;;;20.80;53.18
75938;BME280;64615;32.062;34.834;2024-01-15T01:12:22;101454.56;;;20.79;53.58
75938;BME280;64615;32.062;34.834;2024-01-15T01:14:48;101444.78;;;20.78;53.46
75938;BME280;64615;32.062;34.834;2024-01-15T01:17:13;101450.47;;;20.77;53.27
75938;BME280;64615;32.062;34.834;2024-01-15T01:19:39;101443.16;;;20.77;53.29
75938;BME280;64615;32.062;34.834;2024-01-15T01:22:05;101436.09;;;20.76;53.42
75938;BME280;64615;32.062;34.834;2024-01-15T01:24:30;101436.94;;;20.77;53.26
75938;BME280;64615;32.062;34.834;2024-01-15T01:26:56;101425.63;;;20.80;53.11
75938;BME280;64615;32.062;34.834;2024-01-15T01:29:21;101439.78;;;20.82;53.29
75938;BME280;64615;32.062;34.834;2024-01-15T01:31:48;101441.66;;;20.81;53.03
75938;BME280;64615;32.062;34.834;2024-01-15T01:34:15;101437.63;;;20.84;52.98
75938;BME280;64615;32.062;34.834;2024-01-15T01:36:42;101438.25;;;20.86;53.20
75938;BME280;64615;32.062;34.834;2024-01-15T01:39:07;101431.19;;;20.85;53.28
75938;BME280;64615;32.062;34.834;2024-01-15T01:41:33;101442.00;;;20.85;53.06
75938;BME280;64615;32.062;34.834;2024-01-15T01:43:59;101444.50;;;20.86;52.93
75938;BME280;64615;32.062;34.834;2024-01-15T01:46:25;101439.31;;;20.85;52.86
75938;BME280;64615;32.062;34.834;2024-01-15T01:48:52;101443.88;;;20.84;52.97
75938;BME280;64615;32.062;34.834;2024-01-15T01:51:20;101443.66;;;20.86;52.95
75938;BME280;64615;32.062;34.834;2024-01-15T01:53:47;101440.13;;;20.85;52.93
75938;BME280;64615;32.062;34.834;2024-01-15T01:56:14;101429.31;;;20.85;52.68
75938;BME280;64615;32.062;34.834;2024-01-15T01:58:40;101441.78;;;20.86;52.94
75938;BME280;64615;32.062;34.834;2024-01-15T02:01:06;101443.44;;;20.87;52.71
75938;BME280;64615;32.062;34.834;2024-01-15T02:03:32;101435.31;;;20.87;52.81
75938;BME280;64615;32.062;34.834;2024-01-15T02:06:00;101437.19;;;20.87;52.89
75938;BME280;64615;32.062;34.834;2024-01-15T02:08:26;101434.28;;;20.88;52.70
75938;BME280;64615;32.062;34.834;2024-01-15T02:10:52;101443.44;;;20.87;52.77
75938;BME280;64615;32.062;34.834;2024-01-15T02:13:18;101440.72;;;20.87;52.74
75938;BME280;64615;32.062;34.834;2024-01-15T02:15:44;101445.91;;;20.89;52.51
75938;BME280;64615;32.062;34.834;2024-01-15T02:18:10;101448.59;;;20.89;52.50
75938;BME280;64615;32.062;34.834;2024-01-15T02:20:36;101434.63;;;20.92;52.37
75938;BME280;64615;32.062;34.834;2024-01-15T02:23:09;101439.81;;;20.93;52.38
75938;BME280;64615;32.062;34.834;2024-01-15T02:25:45;101436.44;;;20.98;52.31
75938;BME280;64615;32.062;34.834;2024-01-15T02:28:15;101440.63;;;20.94;52.42
75938;BME280;64615;32.062;34.834;2024-01-15T02:30:42;101444.84;;;20.90;52.51
75938;BME280;64615;32.062;34.834;2024-01-15T02:33:09;101446.38;;;20.86;52.44
75938;BME280;64615;32.062;34.834;2024-01-15T02:35:35;101442.47;;;20.82;52.41
75938;BME280;64615;32.062;34.834;2024-01-15T02:38:02;101448.31;;;20.79;52.43
75938;BME280;64615;32.062;34.834;2024-01-15T02:40:28;101446.91;;;20.76;52.66
75938;BME280;64615;32.062;34.834;2024-01-15T02:42:54;101450.66;;;20.75;52.59
75938;BME280;64615;32.062;34.834;2024-01-15T02:45:20;101447.34;;;20.73;52.67
75938;BME280;64615;32.062;34.834;2024-01-15T02:47:46;101463.00;;;20.71;52.47
75938;BME280;64615;32.062;34.834;2024-01-15T02:50:12;101464.88;;;20.70;52.55
75938;BME280;64615;32.062;34.834;2024-01-15T02:52:37;101455.94;;;20.70;52.59
75938;BME280;64615;32.062;34.834;2024-01-15T02:55:03;101450.75;;;20.68;52.50
75938;BME280;64615;32.062;34.834;2024-01-15T02:57:29;101455.13;;;20.69;52.71
75938;BME280;64615;32.062;34.834;2024-01-15T02:59:55;101456.63;;;20.65;52.61
75938;BME280;64615;32.062;34.834;2024-01-15T03:02:20;101468.03;;;20.67;52.75
75938;BME280;64615;32.062;34.834;2024-01-15T03:04:46;101468.28;;;20.66;52.44
75938;BME280;64615;32.062;34.834;2024-01-15T03:07:12;101477.44;;;20.65;52.54
75938;BME280;64615;32.062;34.834;2024-01-15T03:09:38;101478.28;;;20.65;52.68
75938;BME280;64615;32.062;34.834;2024-01-15T03:12:04;101476.63;;;20.64;52.53
75938;BME280;64615;32.062;34.834;2024-01-15T03:14:30;101487.44;;;20.64;52.65
75938;BME280;64615;32.062;34.834;2024-01-15T03:16:55;101492.84;;;20.64;52.55
75938;BME280;64615;32.062;34.834;2024-01-15T03:19:21;101497.66;;;20.62;52.19
75938;BME280;64615;32.062;34.834;2024-01-15T03:21:47;101507.66;;;20.62;52.52
75938;BME280;64615;32.062;34.834;2024-01-15T03:24:12;101507.66;;;20.62;52.37
75938;BME280;64615;32.062;34.834;2024-01-15T03:26:38;101518.50;;;20.62;52.40
75938;BME280;64615;32.062;34.834;2024-01-15T03:29:04;101536.59;;;20.61;52.29
75938;BME280;64615;32.062;34.834;2024-01-15T03:31:30;101531.19;;;20.61;52.58
75938;BME280;64615;32.062;34.834;2024-01-15T03:33:56;101540.34;;;20.60;52.47
75938;BME280;64615;32.062;34.834;2024-01-15T03:36:21;101541.38;;;20.59;52.50
75938;BME280;64615;32.062;34.834;2024-01-15T03:38:47;101544.09;;;20.59;52.17
75938;BME280;64615;32.062;34.834;2024-01-15T03:41:13;101544.09;;;20.59;52.17
75938;BME280;64615;32.062;34.834;2024-01-15T03:43:39;101550.75;;;20.57;52.21
75938;BME280;64615;32.062;34.834;2024-01-15T03:46:05;101548.88;;;20.57;52.11
75938;BME280;64615;32.062;34.834;2024-01-15T03:48:31;101541.59;;;20.58;52.06
75938;BME280;64615;32.062;34.834;2024-01-15T03:50:56;101545.97;;;20.59;52.00
75938;BME280;64615;32.062;34.834;2024-01-15T03:53:22;101546.34;;;20.62;51.94
75938;BME280;64615;32.062;34.834;2024-01-15T03:55:48;101547.16;;;20.63;52.18
75938;BME280;64615;32.062;34.834;2024-01-15T03:58:14;101545.53;;;20.62;52.16
75938;BME280;64615;32.062;34.834;2024-01-15T04:00:40;101545.53;;;20.62;51.93
75938;BME280;64615;32.062;34.834;2024-01-15T04:03:06;101544.72;;;20.61;52.16
75938;BME280;64615;32.062;34.834;2024-01-15T04:05:32;101551.16;;;20.60;52.21
75938;BME280;64615;32.062;34.834;2024-01-15T04:07:57;101545.06;;;20.65;51.98
75938;BME280;64615;32.062;34.834;2024-01-15T04:10:23;101547.94;;;20.70;52.00
75938;BME280;64615;32.062;34.834;2024-01-15T04:12:49;101552.09;;;20.73;52.17
75938;BME280;64615;32.062;34.834;2024-01-15T04:15:15;101565.97;;;20.76;52.20
75938;BME280;64615;32.062;34.834;2024-01-15T04:17:41;101568.69;;;20.76;52.08
75938;BME280;64615;32.062;34.834;2024-01-15T04:20:07;101575.50;;;20.79;51.93
75938;BME280;64615;32.062;34.834;2024-01-15T04:22:35;101563.06;;;20.78;52.26
75938;BME280;64615;32.062;34.834;2024-01-15T04:25:01;101571.31;;;20.83;52.11
75938;BME280;64615;32.062;34.834;2024-01-15T04:27:27;101580.50;;;20.82;52.41
75938;BME280;64615;32.062;34.834;2024-01-15T04:29:52;101589.19;;;20.84;52.40
75938;BME280;64615;32.062;34.834;2024-01-15T04:32:18;101588.75;;;20.87;52.45
75938;BME280;64615;32.062;34.834;2024-01-15T04:34:44;101595.22;;;20.86;52.41
75938;BME280;64615;32.062;34.834;2024-01-15T04:37:09;101602.13;;;20.82;52.74
75938;BME280;64615;32.062;34.834;2024-01-15T04:39:35;101612.56;;;20.78;52.95
75938;BME280;64615;32.062;34.834;2024-01-15T04:42:01;101612.13;;;20.81;52.86
75938;BME280;64615;32.062;34.834;2024-01-15T04:44:26;101619.63;;;20.79;52.84
75938;BME280;64615;32.062;34.834;2024-01-15T04:46:52;101627.31;;;20.82;53.10
75938;BME280;64615;32.062;34.834;2024-01-15T04:49:18;101626.03;;;20.85;52.94
75938;BME280;64615;32.062;34.834;2024-01-15T04:51:43;101628.38;;;20.81;53.50
75938;BME280;64615;32.062;34.834;2024-01-15T04:54:09;101633.09;;;20.86;53.07
75938;BME280;64615;32.062;34.834;2024-01-15T04:56:34;101639.97;;;20.88;53.23
75938;BME280;64615;32.062;34.834;2024-01-15T04:59:00;101633.56;;;20.83;54.04
75938;BME280;64615;32.062;34.834;2024-01-15T05:01:30;101631.75;;;20.77;53.49
75938;BME280;64615;32.062;34.834;2024-01-15T05:03:56;101628.22;;;20.76;53.51
75938;BME280;64615;32.062;34.834;2024-01-15T05:06:22;101636.53;;;20.75;53.79
75938;BME280;64615;32.062;34.834;2024-01-15T05:08:47;101647.75;;;20.78;53.48
75938;BME280;64615;32.062;34.834;2024-01-15T05:11:13;101649.03;;;20.76;53.68
75938;BME280;64615;32.062;34.834;2024-01-15T05:13:39;101652.78;;;20.75;53.62
75938;BME280;64615;32.062;34.834;2024-01-15T05:16:04;101656.09;;;20.77;53.37
75938;BME280;64615;32.062;34.834;2024-01-15T05:18:30;101653.41;;;20.77;53.27
75938;BME280;64615;32.062;34.834;2024-01-15T05:20:56;101651.97;;;21.10;52.31
75938;BME280;64615;32.062;34.834;2024-01-15T05:23:21;101653.28;;;21.26;52.14
75938;BME280;64615;32.062;34.834;2024-01-15T05:25:47;101642.31;;;21.39;51.54
75938;BME280;64615;32.062;34.834;2024-01-15T05:28:13;101639.88;;;21.49;51.17
75938;BME280;64615;32.062;34.834;2024-01-15T05:30:39;101641.56;;;21.62;50.75
75938;BME280;64615;32.062;34.834;2024-01-15T05:33:05;101634.78;;;21.71;50.60
75938;BME280;64615;32.062;34.834;2024-01-15T05:35:33;101638.34;;;21.83;49.90
75938;BME280;64615;32.062;34.834;2024-01-15T05:37:58;101640.06;;;21.96;49.47
75938;BME280;64615;32.062;34.834;2024-01-15T05:40:24;101654.72;;;22.07;49.32
75938;BME280;64615;32.062;34.834;2024-01-15T05:42:50;101658.53;;;22.17;48.76
75938;BME280;64615;32.062;34.834;2024-01-15T05:45:16;101655.00;;;22.28;48.42
75938;BME280;64615;32.062;34.834;2024-01-15T05:47:41;101668.81;;;22.38;48.24
75938;BME280;64615;32.062;34.834;2024-01-15T05:50:08;101672.72;;;22.43;48.09
75938;BME280;64615;32.062;34.834;2024-01-15T05:52:33;101676.59;;;22.47;47.56
75938;BME280;64615;32.062;34.834;2024-01-15T05:54:59;101689.72;;;22.50;47.34
75938;BME280;64615;32.062;34.834;2024-01-15T05:57:25;101714.97;;;22.62;47.12
75938;BME280;64615;32.062;34.834;2024-01-15T05:59:51;101711.19;;;22.39;47.36
75938;BME280;64615;32.062;34.834;2024-01-15T06:02:16;101719.25;;;22.16;47.88
75938;BME280;64615;32.062;34.834;2024-01-15T06:04:42;101725.34;;;22.53;46.80
75938;BME280;64615;32.062;34.834;2024-01-15T06:07:07;101723.94;;;22.62;46.40
75938;BME280;64615;32.062;34.834;2024-01-15T06:09:33;101732.81;;;22.69;46.19
75938;BME280;64615;32.062;34.834;2024-01-15T06:11:59;101727.75;;;22.73;45.92
75938;BME280;64615;32.062;34.834;2024-01-15T06:14:24;101729.78;;;22.36;46.75
75938;BME280;64615;32.062;34.834;2024-01-15T06:16:50;101744.44;;;22.05;47.40
75938;BME280;64615;32.062;34.834;2024-01-15T06:19:16;101747.03;;;21.82;48.16
75938;BME280;64615;32.062;34.834;2024-01-15T06:21:41;101733.50;;;21.45;47.97
75938;BME280;64615;32.062;34.834;2024-01-15T06:24:07;101735.75;;;20.31;48.46
75938;BME280;64615;32.062;34.834;2024-01-15T06:26:35;101743.91;;;20.56;48.66
75938;BME280;64615;32.062;34.834;2024-01-15T06:29:00;101741.56;;;20.84;48.65
75938;BME280;64615;32.062;34.834;2024-01-15T06:31:26;101740.94;;;21.07;48.41
75938;BME280;64615;32.062;34.834;2024-01-15T06:33:51;101746.91;;;21.40;47.72
75938;BME280;64615;32.062;34.834;2024-01-15T06:36:17;101732.72;;;21.56;47.69
75938;BME280;64615;32.062;34.834;2024-01-15T06:38:43;101745.13;;;21.46;48.14
75938;BME280;64615;32.062;34.834;2024-01-15T06:41:09;101754.63;;;21.37;48.42
75938;BME280;64615;32.062;34.834;2024-01-15T06:43:35;101751.09;;;21.36;48.43
75938;BME280;64615;32.062;34.834;2024-01-15T06:46:01;101747.31;;;21.37;48.56
75938;BME280;64615;32.062;34.834;2024-01-15T06:48:26;101744.84;;;21.36;48.70
75938;BME280;64615;32.062;34.834;2024-01-15T06:50:52;101754.47;;;21.32;48.96
75938;BME280;64615;32.062;34.834;2024-01-15T06:53:18;101756.91;;;21.40;48.82
75938;BME280;64615;32.062;34.834;2024-01-15T06:55:43;101759.81;;;21.56;48.32
75938;BME280;64615;32.062;34.834;2024-01-15T06:58:09;101761.25;;;21.59;48.43
75938;BME280;64615;32.062;34.834;2024-01-15T07:00:35;101765.53;;;21.48;48.71
75938;BME280;64615;32.062;34.834;2024-01-15T07:03:00;101770.34;;;21.46;48.86
75938;BME280;64615;32.062;34.834;2024-01-15T07:05:26;101781.41;;;21.63;48.71
75938;BME280;64615;32.062;34.834;2024-01-15T07:07:52;101787.97;;;21.74;48.48
75938;BME280;64615;32.062;34.834;2024-01-15T07:10:17;101789.47;;;21.70;49.06
75938;BME280;64615;32.062;34.834;2024-01-15T07:12:43;101791.28;;;21.58;49.06
75938;BME280;64615;32.062;34.834;2024-01-15T07:15:09;101802.41;;;21.68;49.04
75938;BME280;64615;32.062;34.834;2024-01-15T07:17:35;101805.28;;;21.73;48.73
75938;BME280;64615;32.062;34.834;2024-01-15T07:20:01;101800.00;;;21.78;48.74
75938;BME280;64615;32.062;34.834;2024-01-15T07:22:27;101801.09;;;21.77;48.82
75938;BME280;64615;32.062;34.834;2024-01-15T07:24:53;101801.84;;;21.66;49.14
75938;BME280;64615;32.062;34.834;2024-01-15T07:27:19;101811.91;;;21.59;49.26
75938;BME280;64615;32.062;34.834;2024-01-15T07:29:45;101819.50;;;21.50;49.37
75938;BME280;64615;32.062;34.834;2024-01-15T07:32:11;101826.88;;;21.43;49.56
75938;BME280;64615;32.062;34.834;2024-01-15T07:34:37;101834.22;;;21.36;49.82
75938;BME280;64615;32.062;34.834;2024-01-15T07:37:03;101842.19;;;21.31;49.87
75938;BME280;64615;32.062;34.834;2024-01-15T07:39:29;101842.84;;;21.26;49.98
75938;BME280;64615;32.062;34.834;2024-01-15T07:41:55;101847.91;;;21.23;50.06
75938;BME280;64615;32.062;34.834;2024-01-15T07:44:21;101853.97;;;21.18;50.23
75938;BME280;64615;32.062;34.834;2024-01-15T07:46:47;101857.13;;;21.15;50.16
75938;BME280;64615;32.062;34.834;2024-01-15T07:49:13;101852.94;;;21.12;50.18
75938;BME280;64615;32.062;34.834;2024-01-15T07:51:39;101856.91;;;21.10;50.53
75938;BME280;64615;32.062;34.834;2024-01-15T07:54:09;101845.50;;;21.08;50.34
75938;BME280;64615;32.062;34.834;2024-01-15T07:56:53;101841.56;;;21.04;50.43
75938;BME280;64615;32.062;34.834;2024-01-15T07:59:19;101842.63;;;21.03;50.51
75938;BME280;64615;32.062;34.834;2024-01-15T08:01:44;101830.34;;;21.00;50.37
75938;BME280;64615;32.062;34.834;2024-01-15T08:04:10;101830.34;;;21.00;50.44
75938;BME280;64615;32.062;34.834;2024-01-15T08:06:38;101822.44;;;20.99;50.35
75938;BME280;64615;32.062;34.834;2024-01-15T08:09:04;101827.84;;;20.99;50.50
75938;BME280;64615;32.062;34.834;2024-01-15T08:11:30;101822.44;;;20.99;50.44
75938;BME280;64615;32.062;34.834;2024-01-15T08:13:56;101822.44;;;20.99;50.45
75938;BME280;64615;32.062;34.834;2024-01-15T08:16:21;101813.50;;;20.98;50.32
75938;BME280;64615;32.062;34.834;2024-01-15T08:18:49;101815.38;;;20.98;50.42
75938;BME280;64615;32.062;34.834;2024-01-15T08:21:15;101812.69;;;20.98;50.46
75938;BME280;64615;32.062;34.834;2024-01-15T08:23:41;101808.31;;;20.97;50.50
75938;BME280;64615;32.062;34.834;2024-01-15T08:26:07;101807.47;;;20.96;50.41
75938;BME280;64615;32.062;34.834;2024-01-15T08:28:34;101796.03;;;20.94;50.53
75938;BME280;64615;32.062;34.834;2024-01-15T08:31:00;101791.06;;;20.91;50.25
75938;BME280;64615;32.062;34.834;2024-01-15T08:33:25;101793.56;;;20.93;50.39
75938;BME280;64615;32.062;34.834;2024-01-15T08:35:51;101791.06;;;20.91;50.42
75938;BME280;64615;32.062;34.834;2024-01-15T08:38:16;101801.06;;;20.91;50.39
75938;BME280;64615;32.062;34.834;2024-01-15T08:40:42;101786.91;;;20.89;50.54
75938;BME280;64615;32.062;34.834;2024-01-15T08:43:08;101789.63;;;20.89;50.31
75938;BME280;64615;32.062;34.834;2024-01-15T08:45:33;101782.34;;;20.89;50.43
75938;BME280;64615;32.062;34.834;2024-01-15T08:47:59;101782.13;;;20.91;50.47
75938;BME280;64615;32.062;34.834;2024-01-15T08:50:24;101785.44;;;20.93;50.17
75938;BME280;64615;32.062;34.834;2024-01-15T08:52:50;101779.56;;;20.96;50.20
75938;BME280;64615;32.062;34.834;2024-01-15T08:55:16;101768.53;;;20.97;50.01
75938;BME280;64615;32.062;34.834;2024-01-15T08:57:41;101774.78;;;20.98;50.17
75938;BME280;64615;32.062;34.834;2024-01-15T09:00:08;101770.56;;;21.02;49.80
75938;BME280;64615;32.062;34.834;2024-01-15T09:02:34;101751.41;;;21.03;49.78
75938;BME280;64615;32.062;34.834;2024-01-15T09:05:01;101763.06;;;21.04;49.98
75938;BME280;64615;32.062;34.834;2024-01-15T09:07:27;101760.56;;;21.02;49.87
75938;BME280;64615;32.062;34.834;2024-01-15T09:09:53;101748.91;;;21.02;50.09
75938;BME280;64615;32.062;34.834;2024-01-15T09:12:19;101742.22;;;21.04;49.82
75938;BME280;64615;32.062;34.834;2024-01-15T09:14:46;101738.72;;;21.04;49.95
75938;BME280;64615;32.062;34.834;2024-01-15T09:17:12;101747.63;;;21.04;50.03
75938;BME280;64615;32.062;34.834;2024-01-15T09:19:38;101728.91;;;21.03;49.98
75938;BME280;64615;32.062;34.834;2024-01-15T09:22:07;101730.78;;;21.02;50.21
75938;BME280;64615;32.062;34.834;2024-01-15T09:24:33;101731.16;;;21.06;50.10
75938;BME280;64615;32.062;34.834;2024-01-15T09:26:58;101727.63;;;21.05;49.94
75938;BME280;64615;32.062;34.834;2024-01-15T09:29:24;101723.88;;;21.06;49.95
75938;BME280;64615;32.062;34.834;2024-01-15T09:31:50;101720.13;;;21.07;50.11
75938;BME280;64615;32.062;34.834;2024-01-15T09:34:16;101714.94;;;21.06;49.83
75938;BME280;64615;32.062;34.834;2024-01-15T09:36:42;101712.22;;;21.06;49.99
75938;BME280;64615;32.062;34.834;2024-01-15T09:39:08;101708.09;;;21.03;50.15
75938;BME280;64615;32.062;34.834;2024-01-15T09:41:36;101709.13;;;21.02;50.28
75938;BME280;64615;32.062;34.834;2024-01-15T09:44:03;101715.59;;;21.01;50.21
75938;BME280;64615;32.062;34.834;2024-01-15T09:46:32;101710.41;;;21.00;50.02
75938;BME280;64615;32.062;34.834;2024-01-15T09:48:58;101706.03;;;20.99;50.16
75938;BME280;64615;32.062;34.834;2024-01-15T09:51:24;101706.03;;;20.99;49.98
75938;BME280;64615;32.062;34.834;2024-01-15T09:53:50;101697.91;;;20.99;50.12
75938;BME280;64615;32.062;34.834;2024-01-15T09:56:17;101689.78;;;20.99;50.01
75938;BME280;64615;32.062;34.834;2024-01-15T09:58:42;101689.00;;;20.98;50.06
75938;BME280;64615;32.062;34.834;2024-01-15T10:01:08;101680.03;;;20.98;50.26
75938;BME280;64615;32.062;34.834;2024-01-15T10:03:35;101691.91;;;20.97;50.07
75938;BME280;64615;32.062;34.834;2024-01-15T10:06:01;101700.88;;;20.97;50.13
75938;BME280;64615;32.062;34.834;2024-01-15T10:08:28;101696.72;;;20.95;50.24
75938;BME280;64615;32.062;34.834;2024-01-15T10:10:53;101697.31;;;20.97;50.37
75938;BME280;64615;32.062;34.834;2024-01-15T10:13:19;101699.19;;;20.96;50.25
75938;BME280;64615;32.062;34.834;2024-01-15T10:15:46;101692.97;;;20.96;50.10
75938;BME280;64615;32.062;34.834;2024-01-15T10:18:16;101688.38;;;20.96;50.14
75938;BME280;64615;32.062;34.834;2024-01-15T10:20:41;101688.59;;;20.95;50.20
75938;BME280;64615;32.062;34.834;2024-01-15T10:23:08;101684.22;;;20.94;50.22
75938;BME280;64615;32.062;34.834;2024-01-15T10:25:35;101686.94;;;20.94;50.10
75938;BME280;64615;32.062;34.834;2024-01-15T10:28:02;101691.53;;;20.93;50.17
75938;BME280;64615;32.062;34.834;2024-01-15T10:30:29;101686.34;;;20.92;50.18
75938;BME280;64615;32.062;34.834;2024-01-15T10:33:00;101686.34;;;20.92;49.89
75938;BME280;64615;32.062;34.834;2024-01-15T10:35:35;101681.97;;;20.91;50.18
75938;BME280;64615;32.062;34.834;2024-01-15T10:38:01;101681.16;;;20.90;50.20
75938;BME280;64615;32.062;34.834;2024-01-15T10:40:28;101678.28;;;20.85;50.28
75938;BME280;64615;32.062;34.834;2024-01-15T10:42:54;101676.56;;;20.73;50.22
75938;BME280;64615;32.062;34.834;2024-01-15T10:45:20;101674.88;;;20.71;50.11
75938;BME280;64615;32.062;34.834;2024-01-15T10:47:46;101669.00;;;20.75;49.94
75938;BME280;64615;32.062;34.834;2024-01-15T10:50:12;101667.97;;;20.76;49.97
75938;BME280;64615;32.062;34.834;2024-01-15T10:52:39;101662.41;;;20.70;49.60
75938;BME280;64615;32.062;34.834;2024-01-15T10:55:11;101662.41;;;20.70;49.99
75938;BME280;64615;32.062;34.834;2024-01-15T10:57:37;101655.53;;;20.68;49.74
75938;BME280;64615;32.062;34.834;2024-01-15T11:00:07;101666.81;;;20.65;49.57
75938;BME280;64615;32.062;34.834;2024-01-15T11:02:35;101666.81;;;20.65;47.91
75938;BME280;64615;32.062;34.834;2024-01-15T11:05:02;101664.28;;;20.70;48.13
75938;BME280;64615;32.062;34.834;2024-01-15T11:07:30;101664.91;;;20.72;47.83
75938;BME280;64615;32.062;34.834;2024-01-15T11:09:55;101666.31;;;20.75;47.86
75938;BME280;64615;32.062;34.834;2024-01-15T11:12:23;101668.81;;;20.76;47.78
75938;BME280;64615;32.062;34.834;2024-01-15T11:14:49;101662.34;;;20.77;47.89
75938;BME280;64615;32.062;34.834;2024-01-15T11:17:16;101667.50;;;20.79;48.00
75938;BME280;64615;32.062;34.834;2024-01-15T11:19:47;101660.47;;;20.78;48.37
75938;BME280;64615;32.062;34.834;2024-01-15T11:25:02;101664.81;;;20.79;48.56
75938;BME280;64615;32.062;34.834;2024-01-15T11:27:41;101668.59;;;20.78;48.49
75938;BME280;64615;32.062;34.834;2024-01-15T11:30:11;101672.94;;;20.79;48.43
75938;BME280;64615;32.062;34.834;2024-01-15T11:32:38;101661.88;;;20.80;48.63
75938;BME280;64615;32.062;34.834;2024-01-15T11:35:11;101657.53;;;20.79;48.74
75938;BME280;64615;32.062;34.834;2024-01-15T11:40:19;101670.84;;;20.81;49.01
75938;BME280;64615;32.062;34.834;2024-01-15T11:42:45;101664.59;;;20.80;49.05
75938;BME280;64615;32.062;34.834;2024-01-15T11:45:13;101668.13;;;20.81;48.91
75938;BME280;64615;32.062;34.834;2024-01-15T11:50:29;101657.31;;;20.81;49.09
75938;BME280;64615;32.062;34.834;2024-01-15T11:53:01;101663.75;;;20.80;48.81
75938;BME280;64615;32.062;34.834;2024-01-15T11:55:30;101661.88;;;20.80;48.91
75938;BME280;64615;32.062;34.834;2024-01-15T11:58:01;101661.88;;;20.80;48.96
75938;BME280;64615;32.062;34.834;2024-01-15T12:00:28;101664.81;;;20.79;48.89
75938;BME280;64615;32.062;34.834;2024-01-15T12:02:54;101667.75;;;20.77;48.86
75938;BME280;64615;32.062;34.834;2024-01-15T12:05:20;101678.59;;;20.77;48.74
75938;BME280;64615;32.062;34.834;2024-01-15T12:07:48;101674.22;;;20.76;48.85
75938;BME280;64615;32.062;34.834;2024-01-15T12:10:18;101683.38;;;20.75;48.50
75938;BME280;64615;32.062;34.834;2024-01-15T12:12:56;101688.78;;;20.75;48.86
75938;BME280;64615;32.062;34.834;2024-01-15T12:15:24;101687.13;;;20.74;48.70
75938;BME280;64615;32.062;34.834;2024-01-15T12:17:50;101690.06;;;20.73;48.42
75938;BME280;64615;32.062;34.834;2024-01-15T12:20:15;101684.66;;;20.73;48.63
75938;BME280;64615;32.062;34.834;2024-01-15T12:22:42;101679.25;;;20.73;48.39
75938;BME280;64615;32.062;34.834;2024-01-15T12:25:09;101688.16;;;20.73;48.51
75938;BME280;64615;32.062;34.834;2024-01-15T12:27:34;101680.31;;;20.71;48.43
75938;BME280;64615;32.062;34.834;2024-01-15T12:30:00;101676.56;;;20.73;48.57
75938;BME280;64615;32.062;34.834;2024-01-15T12:32:26;101680.31;;;20.71;48.46
75938;BME280;64615;32.062;34.834;2024-01-15T12:34:52;101688.41;;;20.71;48.80
75938;BME280;64615;32.062;34.834;2024-01-15T12:37:21;101681.97;;;20.73;48.64
75938;BME280;64615;32.062;34.834;2024-01-15T12:39:47;101674.88;;;20.71;48.54
75938;BME280;64615;32.062;34.834;2024-01-15T12:42:16;101683.84;;;20.72;48.48
75938;BME280;64615;32.062;34.834;2024-01-15T12:44:42;101688.41;;;20.71;48.68